Flight Track Log - Related Links

Times and Time Zones

All times are in EST time to prevent confusion due to time zone crossing. See the CSQ405 flight status page for this flight to view local times or setup timezone preferences in your user account.

Time Position Orientation Groundspeed Altitude Reporting Facility
EST Latitude Longitude Course Direction KTS MPH feet Rate Location/Type
Fri 06:53:00 PM 18.2833 -68.9333 99° East 240 276 15,000  Level San Juan Center
Fri 06:54:01 PM 18.2833 -68.8667 90° East 250 288 15,000  Level San Juan Center
Fri 06:55:01 PM 18.2667 -68.7833 102° East 260 299 15,000  Level San Juan Center
Fri 06:56:01 PM 18.2667 -68.7167 90° East 260 299 15,000  Level San Juan Center
Fri 06:57:01 PM 18.2500 -68.6333 102° East 260 299 15,000  Level San Juan Center
Fri 06:58:00 PM 18.4400 -68.5628 99° East  Level Estimated
Fri 06:58:01 PM 18.2500 -68.5667 90° East 260 299 15,000  Level San Juan Center
Fri 06:59:01 PM 18.2333 -68.4833 102° East 260 299 15,000  Level San Juan Center
Fri 07:00:01 PM 18.2333 -68.4000 90° East 260 299 15,000  Level San Juan Center
Fri 07:01:01 PM 18.2167 -68.3500 109° East 270 311 15,000  Level San Juan Center
Fri 07:02:01 PM 18.2167 -68.2500 90° East 260 299 15,000  Level San Juan Center
Fri 07:03:02 PM 18.2167 -68.1667 90° East 280 322 15,000  Level San Juan Center
Fri 07:04:02 PM 18.2000 -68.1000 105° East 260 299 15,000  Level San Juan Center
Fri 07:05:02 PM 18.2000 -68.0167 90° East 270 311 15,000  Level San Juan Center
Fri 07:06:02 PM 18.1833 -67.9500 105° East 260 299 15,000  Level San Juan Center
Fri 07:07:02 PM 18.1833 -67.8667 90° East 260 299 15,000  Level San Juan Center
Fri 07:08:02 PM 18.2000 -67.7833 78° East 260 299 15,000  Level San Juan Center
Fri 07:09:03 PM 18.2000 -67.7167 90° East 260 299 15,000  Level San Juan Center
Fri 07:10:03 PM 18.2000 -67.6333 90° East 270 311 15,000  Level San Juan Center
Fri 07:11:03 PM 18.2000 -67.5500 90° East 260 299 15,000  Level San Juan Center
Fri 07:12:03 PM 18.2000 -67.4833 90° East 270 311 15,000  Level San Juan Center
Fri 07:13:03 PM 18.2000 -67.4000 90° East 260 299 15,000  Level San Juan Center
Fri 07:14:03 PM 18.2000 -67.3167 90° East 260 299 15,000  Level San Juan Center
Fri 07:15:04 PM 18.2000 -67.2500 90° East 260 299 15,000  Level San Juan Center
Fri 07:16:03 PM 18.2167 -67.1667 78° East 270 311 15,000  Level San Juan Center
Fri 07:17:03 PM 18.2167 -67.1000 90° East 260 299 15,000  Level San Juan Center
Fri 07:18:04 PM 18.2167 -67.0167 90° East 270 311 15,000 50 Level San Juan Center
Fri 07:19:04 PM 18.2167 -66.9333 90° East 270 311 15,100 -450 Climbing San Juan Center
Fri 07:20:04 PM 18.2167 -66.8500 90° East 300 345 14,100 -750 Descending San Juan Center
Fri 07:21:04 PM 18.2333 -66.7500 80° East 300 345 13,600 -450 Descending San Juan Center
Fri 07:22:04 PM 18.2333 -66.6667 90° East 280 322 13,200 -450 Descending San Juan Center
Fri 07:23:04 PM 18.2333 -66.5833 90° East 290 334 12,700 -496 Descending San Juan Center
Fri 07:24:05 PM 18.2333 -66.5000 90° East 280 322 12,200 -446 Descending San Juan Center
Fri 07:25:05 PM 18.2500 -66.4333 75° East 280 322 11,800 -600 Descending San Juan Center
Fri 07:26:05 PM 18.3000 -66.3500 58° Northeast 290 334 11,000 -1,600 Descending San Juan Center
Fri 07:27:05 PM 18.3500 -66.2833 52° Northeast 280 322 8,600 -2,650 Descending San Juan Center
Fri 07:28:05 PM 18.4000 -66.2333 43° Northeast 270 311 5,700 -2,600 Descending San Juan Center
Fri 07:29:05 PM 18.4167 -66.1667 75° East 250 288 3,400 -1,500 Descending San Juan Center
Fri 07:30:05 PM 18.4333 -66.1000 75° East 180 207 2,700 -1,000 Descending San Juan Center
Fri 07:31:05 PM 18.4333 -66.0667 90° East 130 150 1,400 -1,100 Descending San Juan Center
Fri 07:32:05 PM 18.4333 -66.0333 90° East 140 161 500 -900 Descending San Juan Center

Login

Don't have an account? Register now (free) for customized features, flight alerts, and more!